Eglin Air Force Base
KVPS : now visible

Airfield :











YOU CAN JOIN US ON...

 
LOGIN :

Register | Disclaimer

   EN    FR    IT 

 









Legend :    VFR   Marginal VFR   IFR   Intensive IFR   Very Intensive IFR
Visi :
Ceiling :
>= 8 km
>= 3000ft
5 to 8 km
1000 to 3000 ft
1500m to 5 km
500 to 1000 ft
800 to 1500m
200 to 500 ft
< 800m
< 200 ft
Symbols :   Thunderstorms  Fog  Heavy snow  Heavy precipitations  Wind > 20 kt






- Airport Elevation : 87 ft
- IATA code : VPS


KVPS - Eglin Air Force Base

CURRENT METAR :
  • 130501Z AUTO 05009KT 10SM BKN007 OVC013 09/08 A3014 RMK AO2 CIG 007V014 SLP214 $

EXPIRED METARs :
  • 130426Z AUTO 07009KT 10SM FEW008 SCT026 OVC150 09/08 A3015 RMK AO2 SLP217 $
  • 130356Z AUTO 07009KT 10SM BKN026 OVC041 09/08 A3018 RMK AO2 SLP227 T00930082 $
  • 130326Z AUTO 07011KT 10SM SCT021 OVC027 09/08 A3018 RMK AO2 CIG 021V027 CIG 025 RWY12 CIG 024 RWY19 SLPNO $
  • 130256Z AUTO 06008KT 10SM OVC021 09/08 A3020 RMK AO2 DZB34E43 SLPNO P0000 60019 T00930082 57008 $

TAF TAF KVPS
Valid from the 13 at 02:00 until the 14 at 08:00 UTC


130200Z 1302/1408 04010KT 9000 BR FEW009 SCT015 BKN025 QNH3018INS
TEMPO 1302/1306 SCT009 BKN015
BECMG 1305/1306 06012KT 8000 VCTS SCT005 BKN010 BKN020CB QNH3012INS
BECMG 1306/1307 09012G18KT 8000 VCTS BKN005 BKN010 BKN020CB QNH3008INS
TEMPO 1307/1311 3200 TSRA SCT005 BKN015CB
BECMG 1311/1312 02009KT 8000 -SHRA BKN009 BKN015 QNH2995INS
BECMG 1402/1403 35004KT 4800 -RA BR BKN005 QNH2989INS TX13/1320Z TN06/1310Z



MET'MAP, your aeronautical weather chart ! - Copyright ORBIFLY December 2007 - Disclaimer

ORBIFLY MET'MAP TEAM :

Programming & Development : Alexandra Zaïnal
Concept & original design : Baudouin d'Aumeries
Assistance for programming : Marc-Olivier Méhu
Technical & hardware support : Manuel Goepfert

Contact : metmap@orbifly.com




SOURCES & CREDITS :

   NOAA       Earth
Advisory